Time;durP1;ratioP1;P1;durP2;ratioP2;P2;SDS_P1;SDS_P2;PMS_P1;PMS_P2;Temp;Humidity;BMP_temperature;BMP_pressure;BME280_temperature;BME280_humidity;BME280_pressure;Samples;Min_cycle;Max_cycle;Signal;HPM_P1;HPM_P2
2023/07/13 00:00:59;;;;;;;4.50;1.30;;;18.20;57.30;;;;;;5082134;28;20432;-70
2023/07/13 00:03:25;;;;;;;3.70;1.20;;;18.10;57.80;;;;;;5091178;28;20792;-72
2023/07/13 00:05:58;;;;;;;3.45;1.30;;;18.10;57.70;;;;;;5091380;28;20421;-70
2023/07/13 00:08:25;;;;;;;4.35;1.20;;;18.00;58.20;;;;;;5090474;28;20425;-70
2023/07/13 00:10:54;;;;;;;3.95;1.40;;;18.00;58.50;;;;;;5090531;28;20788;-71
2023/07/13 00:13:21;;;;;;;6.22;1.40;;;18.00;58.70;;;;;;5091257;28;20471;-70
2023/07/13 00:15:49;;;;;;;4.25;1.30;;;17.90;59.30;;;;;;5089099;28;20430;-70
2023/07/13 00:18:16;;;;;;;2.85;0.95;;;17.90;59.10;;;;;;5090840;28;20418;-71
2023/07/13 00:20:43;;;;;;;3.67;1.30;;;17.90;60.00;;;;;;5090415;28;20738;-70
2023/07/13 00:23:10;;;;;;;2.70;1.08;;;17.80;59.40;;;;;;5090471;28;20808;-70
2023/07/13 00:25:36;;;;;;;4.22;1.10;;;17.80;59.70;;;;;;5090183;28;20420;-71
2023/07/13 00:28:03;;;;;;;4.30;1.38;;;17.80;60.30;;;;;;5091111;28;20413;-71
2023/07/13 00:30:30;;;;;;;2.90;1.10;;;17.80;59.70;;;;;;5090295;28;20426;-71
2023/07/13 00:33:00;;;;;;;4.60;1.27;;;17.80;60.00;;;;;;5088790;28;20928;-71
2023/07/13 00:35:27;;;;;;;2.83;1.20;;;17.70;60.10;;;;;;5090806;28;20463;-70
2023/07/13 00:37:54;;;;;;;3.17;1.55;;;17.70;61.30;;;;;;5090140;28;20430;-71
2023/07/13 00:40:21;;;;;;;4.30;2.00;;;17.70;62.20;;;;;;5088804;28;20410;-71
2023/07/13 00:42:47;;;;;;;3.45;1.20;;;17.80;60.70;;;;;;5090702;28;20414;-71
2023/07/13 00:45:51;;;;;;;3.28;1.23;;;17.80;60.70;;;;;;5090224;28;20413;-70
2023/07/13 00:48:21;;;;;;;3.60;1.10;;;17.80;61.00;;;;;;5089278;28;20437;-71
2023/07/13 00:50:52;;;;;;;2.25;1.10;;;17.70;61.00;;;;;;5087920;28;20430;-69
2023/07/13 00:53:20;;;;;;;6.05;1.42;;;17.70;61.30;;;;;;5090212;28;20424;-71
2023/07/13 00:55:49;;;;;;;2.42;1.10;;;17.60;61.50;;;;;;5089802;28;20746;-70
2023/07/13 00:58:16;;;;;;;2.55;1.30;;;17.50;62.00;;;;;;5090375;28;20514;-70
2023/07/13 01:00:43;;;;;;;3.05;1.15;;;17.50;62.70;;;;;;5089881;28;20406;-71
2023/07/13 01:03:10;;;;;;;2.90;1.30;;;17.40;62.10;;;;;;5090263;28;20418;-70
2023/07/13 01:05:39;;;;;;;3.30;1.40;;;17.40;63.10;;;;;;5083476;28;20431;-70
2023/07/13 01:08:06;;;;;;;4.60;1.27;;;17.40;62.60;;;;;;5089938;28;20953;-71
2023/07/13 01:10:38;;;;;;;3.70;1.23;;;17.30;63.00;;;;;;5089224;28;20504;-70
2023/07/13 01:13:05;;;;;;;6.40;1.80;;;17.30;63.10;;;;;;5090247;28;20569;-71
2023/07/13 01:15:37;;;;;;;3.50;1.15;;;17.30;63.80;;;;;;5089531;28;20436;-70
2023/07/13 01:18:05;;;;;;;3.40;1.27;;;17.30;63.60;;;;;;5090127;28;20657;-71
2023/07/13 01:20:36;;;;;;;4.28;1.35;;;17.30;63.40;;;;;;5088832;28;20425;-72
2023/07/13 01:23:06;;;;;;;3.17;1.10;;;17.20;63.70;;;;;;5081975;28;20483;-71
2023/07/13 01:25:34;;;;;;;3.15;1.08;;;17.10;63.70;;;;;;5089086;28;20476;-71
2023/07/13 01:28:01;;;;;;;2.22;1.20;;;17.10;64.20;;;;;;5088293;28;20559;-70
2023/07/13 01:30:28;;;;;;;2.42;1.10;;;17.10;64.40;;;;;;5087749;28;20942;-71
2023/07/13 01:32:55;;;;;;;3.67;1.15;;;17.00;65.10;;;;;;5089699;28;20414;-70
2023/07/13 01:35:22;;;;;;;4.15;1.20;;;17.00;64.80;;;;;;5088588;28;20430;-70
2023/07/13 01:37:48;;;;;;;2.10;0.98;;;17.00;64.80;;;;;;5089503;28;20928;-71
2023/07/13 01:40:16;;;;;;;3.08;1.25;;;16.90;65.30;;;;;;5088959;28;20417;-70
2023/07/13 01:42:44;;;;;;;3.00;1.00;;;16.90;65.30;;;;;;5089349;28;20521;-70
2023/07/13 01:45:11;;;;;;;2.50;1.00;;;16.90;65.30;;;;;;5089488;28;20739;-71
2023/07/13 01:47:38;;;;;;;3.80;1.40;;;16.90;66.10;;;;;;5089448;28;20512;-71
2023/07/13 01:50:05;;;;;;;2.92;1.10;;;16.90;65.90;;;;;;5088118;28;20422;-71
2023/07/13 01:52:32;;;;;;;2.00;1.10;;;16.80;66.00;;;;;;5089550;28;20425;-71
2023/07/13 01:54:58;;;;;;;3.03;1.40;;;16.80;66.50;;;;;;5081197;28;20816;-71
2023/07/13 01:57:26;;;;;;;4.72;1.10;;;16.80;66.60;;;;;;5089140;28;20417;-71
2023/07/13 01:59:53;;;;;;;2.85;1.50;;;16.80;66.70;;;;;;5088410;28;20427;-71
2023/07/13 02:02:20;;;;;;;2.40;1.00;;;16.80;66.90;;;;;;5089210;28;20423;-71
2023/07/13 02:04:47;;;;;;;3.30;1.20;;;16.70;67.30;;;;;;5088965;28;20414;-70
2023/07/13 02:07:14;;;;;;;2.90;1.20;;;16.70;67.40;;;;;;5088304;28;20433;-71
2023/07/13 02:09:41;;;;;;;3.40;1.40;;;16.70;67.50;;;;;;5087832;28;20852;-70
2023/07/13 02:12:09;;;;;;;3.05;1.30;;;16.70;67.90;;;;;;5089273;28;20430;-71
2023/07/13 02:14:37;;;;;;;3.95;1.30;;;16.60;68.80;;;;;;5089591;28;20414;-71
2023/07/13 02:17:04;;;;;;;2.97;1.30;;;16.60;69.40;;;;;;5089104;28;20402;-70
2023/07/13 02:19:31;;;;;;;4.32;1.30;;;16.60;69.30;;;;;;5087596;28;20437;-71
2023/07/13 02:21:58;;;;;;;2.37;1.30;;;16.60;69.50;;;;;;5088957;28;20433;-70
2023/07/13 02:24:25;;;;;;;3.17;1.10;;;16.70;69.90;;;;;;5089371;28;20820;-71
2023/07/13 02:26:51;;;;;;;3.40;1.40;;;16.70;68.90;;;;;;5088394;28;20775;-71
2023/07/13 02:29:18;;;;;;;3.17;1.40;;;16.60;70.10;;;;;;5088377;28;20940;-70
2023/07/13 02:31:46;;;;;;;3.60;1.33;;;16.60;69.60;;;;;;5088815;28;20422;-70
2023/07/13 02:34:13;;;;;;;3.20;1.50;;;16.60;68.40;;;;;;5089011;28;20425;-71
2023/07/13 02:36:40;;;;;;;4.45;1.40;;;16.60;69.30;;;;;;5087886;28;20868;-71
2023/07/13 02:39:07;;;;;;;3.25;2.13;;;16.60;69.60;;;;;;5088328;28;20788;-72
2023/07/13 02:41:34;;;;;;;4.68;1.30;;;16.60;69.50;;;;;;5088591;28;20410;-72
2023/07/13 02:44:03;;;;;;;4.50;1.42;;;16.50;69.20;;;;;;5088746;28;20435;-71
2023/07/13 02:46:30;;;;;;;3.60;1.20;;;16.50;69.70;;;;;;5088737;28;20466;-70
2023/07/13 02:48:58;;;;;;;2.80;1.30;;;16.50;69.40;;;;;;5087123;28;20900;-71
2023/07/13 02:51:25;;;;;;;4.00;1.63;;;16.40;69.80;;;;;;5088152;28;20907;-70
2023/07/13 02:53:51;;;;;;;4.78;1.40;;;16.40;69.80;;;;;;5088744;28;20417;-71
2023/07/13 02:56:20;;;;;;;3.60;1.45;;;16.40;71.20;;;;;;5088286;28;20413;-70
2023/07/13 02:58:46;;;;;;;4.80;1.73;;;16.50;71.20;;;;;;5088333;28;20416;-71
2023/07/13 03:01:18;;;;;;;3.50;1.60;;;16.50;70.70;;;;;;5088543;28;20402;-71
2023/07/13 03:03:45;;;;;;;4.60;1.50;;;16.50;70.90;;;;;;5091255;28;20497;-71
2023/07/13 03:06:14;;;;;;;2.80;1.20;;;16.50;71.60;;;;;;5090489;28;20429;-71
2023/07/13 03:08:41;;;;;;;3.17;1.40;;;16.50;71.90;;;;;;5092323;28;20528;-71
2023/07/13 03:11:11;;;;;;;4.80;1.50;;;16.50;70.80;;;;;;5091567;28;20425;-71
2023/07/13 03:13:39;;;;;;;3.60;1.70;;;16.40;70.50;;;;;;5092539;28;20410;-70
2023/07/13 03:16:07;;;;;;;2.40;1.45;;;16.40;70.90;;;;;;5091470;28;20428;-70
2023/07/13 03:18:33;;;;;;;3.27;1.40;;;16.40;71.50;;;;;;5091411;28;20533;-71
2023/07/13 03:21:00;;;;;;;3.50;1.57;;;16.40;71.20;;;;;;5092054;28;20524;-72
2023/07/13 03:23:28;;;;;;;6.50;2.10;;;16.30;71.00;;;;;;5092411;28;20425;-71
2023/07/13 03:26:04;;;;;;;3.60;1.40;;;16.40;70.90;;;;;;5091597;28;20410;-71
2023/07/13 03:28:30;;;;;;;5.25;1.50;;;16.30;70.80;;;;;;5092072;28;20413;-70
2023/07/13 03:31:01;;;;;;;5.20;2.25;;;16.40;70.90;;;;;;5091530;28;20831;-70
2023/07/13 03:33:28;;;;;;;3.75;1.58;;;16.30;70.70;;;;;;5091930;28;20434;-71
2023/07/13 03:35:55;;;;;;;3.42;1.60;;;16.30;70.60;;;;;;5091174;28;20430;-71
2023/07/13 03:38:21;;;;;;;3.33;2.00;;;16.30;70.70;;;;;;5091926;28;20429;-71
2023/07/13 03:40:50;;;;;;;4.40;1.50;;;16.30;70.40;;;;;;5090991;28;20421;-71
2023/07/13 03:43:16;;;;;;;4.70;2.30;;;16.30;70.80;;;;;;5091801;28;20914;-70
2023/07/13 03:45:43;;;;;;;3.33;1.30;;;16.20;70.60;;;;;;5091581;28;20414;-70
2023/07/13 03:48:10;;;;;;;3.10;1.40;;;16.20;71.00;;;;;;5091073;28;20488;-70
2023/07/13 03:50:38;;;;;;;5.97;1.90;;;16.20;71.10;;;;;;5090944;28;20445;-71
2023/07/13 03:53:05;;;;;;;4.72;1.52;;;16.20;71.20;;;;;;5091669;28;20429;-72
2023/07/13 03:55:32;;;;;;;3.10;1.58;;;16.20;71.50;;;;;;5091141;28;20428;-71
2023/07/13 03:58:29;;;;;;;3.35;1.40;;;16.20;71.90;;;;;;5091024;28;20757;-71
2023/07/13 04:00:57;;;;;;;3.92;1.60;;;16.20;72.40;;;;;;5083257;28;20430;-71
2023/07/13 04:03:23;;;;;;;3.88;1.60;;;16.20;72.50;;;;;;5089221;28;20872;-71
2023/07/13 04:05:50;;;;;;;3.33;1.67;;;16.20;72.30;;;;;;5089289;28;20754;-72
2023/07/13 04:08:17;;;;;;;4.80;1.70;;;16.20;72.90;;;;;;5090475;28;20441;-71
2023/07/13 04:10:45;;;;;;;5.05;2.00;;;16.20;72.70;;;;;;5089535;28;20807;-71
2023/07/13 04:13:14;;;;;;;4.20;1.60;;;16.20;72.90;;;;;;5090578;28;20592;-71
2023/07/13 04:15:41;;;;;;;3.75;2.10;;;16.20;72.70;;;;;;5090367;28;20497;-71
2023/07/13 04:18:08;;;;;;;5.10;1.60;;;16.20;73.20;;;;;;5088074;28;20433;-71
2023/07/13 04:20:35;;;;;;;4.45;1.60;;;16.20;73.30;;;;;;5092875;28;20826;-71
2023/07/13 04:23:02;;;;;;;5.20;1.92;;;16.20;73.50;;;;;;5092925;28;20414;-70
2023/07/13 04:25:29;;;;;;;4.20;1.90;;;16.20;74.10;;;;;;5092031;28;20410;-71
2023/07/13 04:27:56;;;;;;;5.67;1.60;;;16.20;73.80;;;;;;5091970;28;20418;-71
2023/07/13 04:30:24;;;;;;;5.87;1.67;;;16.20;74.10;;;;;;5090870;28;20451;-71
2023/07/13 04:32:52;;;;;;;2.75;1.40;;;16.20;74.20;;;;;;5090588;28;20433;-71
2023/07/13 04:35:21;;;;;;;6.17;1.70;;;16.20;74.60;;;;;;5090926;28;20422;-71
2023/07/13 04:37:50;;;;;;;4.72;1.85;;;16.20;74.60;;;;;;5090945;28;20413;-71
2023/07/13 04:40:18;;;;;;;6.82;1.73;;;16.20;74.80;;;;;;5089852;28;20498;-71
2023/07/13 04:42:45;;;;;;;4.88;1.67;;;16.20;75.00;;;;;;5090755;28;20405;-70
2023/07/13 04:45:13;;;;;;;3.42;1.50;;;16.20;75.20;;;;;;5090312;28;20418;-70
2023/07/13 04:47:42;;;;;;;2.85;1.10;;;16.20;75.30;;;;;;5089602;28;20781;-72
2023/07/13 04:50:11;;;;;;;4.43;1.70;;;16.20;75.80;;;;;;5089965;28;20414;-72
2023/07/13 04:52:38;;;;;;;4.30;1.77;;;16.20;76.30;;;;;;5090866;28;20445;-70
2023/07/13 04:55:05;;;;;;;3.13;1.33;;;16.20;76.10;;;;;;5089756;28;20413;-72
2023/07/13 04:57:33;;;;;;;5.13;1.70;;;16.30;75.50;;;;;;5090587;28;20410;-71
2023/07/13 05:00:00;;;;;;;4.10;2.08;;;16.30;76.00;;;;;;5089981;28;20413;-72
2023/07/13 05:02:28;;;;;;;3.00;1.67;;;16.30;75.40;;;;;;5088373;28;20425;-72
2023/07/13 05:04:56;;;;;;;4.20;1.42;;;16.30;75.60;;;;;;5089272;28;20788;-70
2023/07/13 05:07:23;;;;;;;3.35;1.40;;;16.30;75.80;;;;;;5089997;28;20422;-71
2023/07/13 05:09:49;;;;;;;3.00;1.40;;;16.30;75.80;;;;;;5089051;28;20425;-71
2023/07/13 05:12:16;;;;;;;4.97;1.50;;;16.30;76.10;;;;;;5090143;28;20436;-71
2023/07/13 05:14:43;;;;;;;3.58;1.40;;;16.30;76.40;;;;;;5089733;28;20441;-71
2023/07/13 05:17:09;;;;;;;3.83;1.30;;;16.30;76.30;;;;;;5080574;22;20429;-69
2023/07/13 05:19:37;;;;;;;2.65;1.65;;;16.30;76.70;;;;;;5049381;28;20903;-69
2023/07/13 05:22:05;;;;;;;3.55;1.48;;;16.30;77.00;;;;;;5050611;28;20409;-70
2023/07/13 05:24:32;;;;;;;4.00;1.40;;;16.40;77.00;;;;;;5050172;28;20420;-69
2023/07/13 05:26:59;;;;;;;3.37;1.40;;;16.40;77.10;;;;;;5050352;28;20425;-69
2023/07/13 05:29:26;;;;;;;3.80;1.40;;;16.40;77.20;;;;;;5049658;28;20416;-71
2023/07/13 05:31:53;;;;;;;4.40;1.50;;;16.40;77.20;;;;;;5049707;28;20835;-69
2023/07/13 05:34:20;;;;;;;5.13;1.60;;;16.40;77.40;;;;;;5049961;28;20420;-68
2023/07/13 05:36:47;;;;;;;3.20;1.77;;;16.50;77.20;;;;;;5050168;28;20420;-68
2023/07/13 05:39:15;;;;;;;3.50;1.48;;;16.50;77.20;;;;;;5049147;28;20409;-69
2023/07/13 05:41:41;;;;;;;3.55;1.70;;;16.60;76.90;;;;;;5049705;28;20895;-69
2023/07/13 05:44:08;;;;;;;4.57;1.70;;;16.70;76.70;;;;;;5049726;28;20416;-69
2023/07/13 05:46:35;;;;;;;6.15;1.65;;;16.70;76.70;;;;;;5047703;28;20815;-69
2023/07/13 05:49:02;;;;;;;4.28;1.77;;;16.80;76.80;;;;;;5049136;28;20416;-70
2023/07/13 05:51:29;;;;;;;3.20;1.50;;;16.90;76.40;;;;;;5049837;28;20433;-69
2023/07/13 05:53:56;;;;;;;4.23;1.63;;;17.00;75.90;;;;;;5048713;28;20892;-69
2023/07/13 05:56:25;;;;;;;4.47;1.83;;;17.10;76.60;;;;;;5049359;28;20425;-70
2023/07/13 05:58:52;;;;;;;3.53;1.60;;;17.10;75.80;;;;;;5048863;28;20417;-70
2023/07/13 06:01:20;;;;;;;3.40;1.70;;;17.20;77.20;;;;;;5048919;28;20430;-69
2023/07/13 06:03:46;;;;;;;4.65;1.58;;;17.20;75.90;;;;;;5049512;28;20512;-70
2023/07/13 06:06:13;;;;;;;4.07;1.65;;;17.30;75.20;;;;;;5049349;28;20414;-70
2023/07/13 06:08:40;;;;;;;4.70;1.95;;;17.30;75.70;;;;;;5049048;28;20421;-70
2023/07/13 06:11:08;;;;;;;4.90;1.60;;;17.30;75.70;;;;;;5049254;28;20429;-69
2023/07/13 06:13:36;;;;;;;4.30;1.65;;;17.30;75.70;;;;;;5049702;28;20432;-69
2023/07/13 06:16:05;;;;;;;5.50;1.90;;;17.40;76.30;;;;;;5048533;28;20437;-69
2023/07/13 06:18:32;;;;;;;5.00;2.47;;;17.40;76.10;;;;;;5057110;28;20408;-69
2023/07/13 06:20:59;;;;;;;4.28;1.75;;;17.40;76.10;;;;;;5069423;28;20401;-69
2023/07/13 06:23:26;;;;;;;3.20;1.60;;;17.40;76.30;;;;;;5054416;28;20507;-69
2023/07/13 06:25:53;;;;;;;5.95;1.90;;;17.40;76.50;;;;;;5068657;28;20471;-69
2023/07/13 06:28:20;;;;;;;5.28;1.90;;;17.30;76.90;;;;;;5070742;28;20389;-71
2023/07/13 06:30:48;;;;;;;5.18;1.80;;;17.40;76.90;;;;;;5070613;28;20433;-70
2023/07/13 06:33:15;;;;;;;4.10;2.10;;;17.40;77.40;;;;;;5051344;28;20903;-70
2023/07/13 06:35:41;;;;;;;3.50;1.40;;;17.40;77.00;;;;;;5050309;28;20886;-69
2023/07/13 06:38:08;;;;;;;4.10;1.85;;;17.40;77.20;;;;;;5058778;28;20408;-70
2023/07/13 06:40:35;;;;;;;5.43;1.95;;;17.50;77.10;;;;;;5076661;28;20416;-70
2023/07/13 06:43:01;;;;;;;3.80;1.53;;;17.50;77.10;;;;;;5077819;28;20397;-70
2023/07/13 06:45:28;;;;;;;4.97;1.88;;;17.50;77.30;;;;;;5058334;28;20815;-69
2023/07/13 06:47:56;;;;;;;4.68;1.90;;;17.60;77.30;;;;;;5053940;28;20428;-70
2023/07/13 06:50:23;;;;;;;3.80;1.57;;;17.60;76.80;;;;;;5053021;28;20497;-69
2023/07/13 06:52:50;;;;;;;4.90;1.60;;;17.70;76.50;;;;;;5053380;28;20428;-69
2023/07/13 06:55:17;;;;;;;4.53;2.00;;;17.80;76.50;;;;;;5054495;28;20710;-69
2023/07/13 06:57:43;;;;;;;4.00;1.80;;;17.90;76.50;;;;;;5053684;28;20764;-69
2023/07/13 07:00:11;;;;;;;5.50;2.30;;;18.00;75.40;;;;;;5050315;28;20455;-70
2023/07/13 07:02:38;;;;;;;3.97;1.80;;;18.10;75.10;;;;;;5051639;28;20863;-70
2023/07/13 07:05:07;;;;;;;3.50;1.53;;;18.20;74.20;;;;;;5053060;28;20417;-70
2023/07/13 07:07:33;;;;;;;4.18;1.70;;;18.30;74.40;;;;;;5052971;28;20416;-69
2023/07/13 07:10:00;;;;;;;5.15;2.10;;;18.40;73.70;;;;;;5052182;28;20409;-69
2023/07/13 07:12:27;;;;;;;4.13;1.70;;;18.40;73.50;;;;;;5052541;28;20420;-69
2023/07/13 07:14:53;;;;;;;4.10;1.90;;;18.50;73.40;;;;;;5051368;28;20437;-69
2023/07/13 07:17:20;;;;;;;5.20;1.80;;;18.60;72.60;;;;;;5051827;28;20440;-69
2023/07/13 07:19:47;;;;;;;5.70;1.90;;;18.70;72.30;;;;;;5052463;28;20507;-69
2023/07/13 07:22:15;;;;;;;3.88;1.70;;;18.80;72.90;;;;;;5052715;28;20413;-70
2023/07/13 07:24:42;;;;;;;2.83;1.83;;;18.90;72.80;;;;;;5050423;28;20440;-69
2023/07/13 07:27:08;;;;;;;4.32;1.70;;;19.00;70.40;;;;;;5050215;28;20741;-70
2023/07/13 07:29:35;;;;;;;4.60;2.05;;;19.00;71.20;;;;;;5051848;28;20484;-68
2023/07/13 07:32:02;;;;;;;5.65;2.10;;;19.00;70.60;;;;;;5051263;28;20452;-69
2023/07/13 07:34:28;;;;;;;5.15;1.70;;;19.10;70.80;;;;;;5051756;28;20428;-68
2023/07/13 07:36:55;;;;;;;4.20;1.90;;;19.20;70.30;;;;;;5052132;28;20503;-69
2023/07/13 07:39:23;;;;;;;4.37;2.00;;;19.20;69.60;;;;;;5051511;28;20412;-69
2023/07/13 07:41:50;;;;;;;5.55;2.08;;;19.20;69.50;;;;;;5051955;28;20425;-70
2023/07/13 07:44:17;;;;;;;3.43;1.90;;;19.20;69.20;;;;;;5052998;28;20425;-69
2023/07/13 07:46:44;;;;;;;5.32;2.13;;;19.20;69.80;;;;;;5051139;28;20433;-70
2023/07/13 07:49:10;;;;;;;5.65;2.03;;;19.40;69.30;;;;;;5051166;28;20413;-69
2023/07/13 07:51:37;;;;;;;4.10;1.80;;;19.40;68.40;;;;;;5052173;28;20425;-69
2023/07/13 07:54:04;;;;;;;5.63;1.83;;;19.40;69.30;;;;;;5051670;28;20413;-69
2023/07/13 07:56:32;;;;;;;5.35;1.88;;;19.40;69.90;;;;;;5052085;28;20428;-69
2023/07/13 07:58:59;;;;;;;4.63;1.80;;;19.40;70.30;;;;;;5050642;28;20984;-69
2023/07/13 08:01:26;;;;;;;3.72;1.50;;;19.60;69.90;;;;;;5051066;28;20417;-70
2023/07/13 08:03:53;;;;;;;6.55;1.80;;;19.70;67.90;;;;;;5051881;28;20426;-69
2023/07/13 08:06:19;;;;;;;5.57;1.90;;;19.80;67.40;;;;;;5051973;28;20421;-71
2023/07/13 08:08:46;;;;;;;4.55;1.85;;;19.80;67.40;;;;;;5050924;28;20439;-70
2023/07/13 08:11:13;;;;;;;6.60;2.08;;;19.90;67.20;;;;;;5051750;28;20413;-69
2023/07/13 08:13:41;;;;;;;4.70;2.23;;;19.80;66.90;;;;;;5051717;28;20413;-69
2023/07/13 08:16:08;;;;;;;4.22;1.90;;;19.80;66.80;;;;;;5049767;28;20815;-69
2023/07/13 08:18:35;;;;;;;5.00;1.90;;;19.80;67.30;;;;;;5050160;28;20429;-69
2023/07/13 08:21:05;;;;;;;5.63;1.80;;;19.90;66.90;;;;;;5051203;28;20424;-69
2023/07/13 08:23:32;;;;;;;3.80;1.60;;;20.00;66.90;;;;;;5047407;28;20417;-69
2023/07/13 08:26:01;;;;;;;3.13;1.85;;;20.00;66.50;;;;;;5031752;28;20778;-70
2023/07/13 08:28:28;;;;;;;5.00;2.10;;;20.00;66.70;;;;;;5032065;28;20449;-69
2023/07/13 08:31:00;;;;;;;5.65;1.90;;;20.00;66.70;;;;;;5033860;28;20508;-69
2023/07/13 08:33:27;;;;;;;5.43;1.70;;;20.10;66.30;;;;;;5069502;28;20413;-71
2023/07/13 08:35:54;;;;;;;3.40;1.80;;;20.10;66.30;;;;;;5075574;28;20433;-70
2023/07/13 08:38:20;;;;;;;4.55;2.00;;;20.20;65.30;;;;;;5068147;28;20415;-71
2023/07/13 08:40:52;;;;;;;3.70;1.80;;;20.30;65.30;;;;;;5051653;28;20440;-70
2023/07/13 08:43:25;;;;;;;5.00;1.90;;;20.40;64.60;;;;;;5047680;28;20432;-69
2023/07/13 08:45:56;;;;;;;2.60;1.40;;;20.50;65.30;;;;;;5063583;28;20417;-69
2023/07/13 08:48:27;;;;;;;5.10;1.65;;;20.70;63.20;;;;;;5050676;28;20835;-68
2023/07/13 08:50:59;;;;;;;4.78;1.63;;;20.60;62.70;;;;;;5046680;28;20433;-69
2023/07/13 08:53:35;;;;;;;3.97;1.65;;;20.60;62.60;;;;;;5051954;28;20436;-69
2023/07/13 08:56:02;;;;;;;4.15;2.30;;;20.60;62.30;;;;;;5051261;28;20429;-69
2023/07/13 08:58:29;;;;;;;3.50;2.10;;;20.60;63.70;;;;;;5051796;28;20413;-69
2023/07/13 09:01:03;;;;;;;4.07;1.63;;;20.80;62.70;;;;;;5049288;28;20923;-69
2023/07/13 09:03:41;;;;;;;4.13;1.90;;;20.80;62.60;;;;;;5051122;28;20471;-69
2023/07/13 09:06:11;;;;;;;3.40;1.80;;;20.80;62.30;;;;;;5050515;28;20530;-71
2023/07/13 09:08:47;;;;;;;3.85;1.60;;;20.70;62.80;;;;;;5049333;28;20420;-69
2023/07/13 09:11:24;;;;;;;6.05;1.95;;;20.80;62.00;;;;;;5049808;28;20444;-70
2023/07/13 09:14:02;;;;;;;4.40;1.80;;;20.80;61.30;;;;;;5050645;28;20413;-70
2023/07/13 09:16:28;;;;;;;5.30;1.70;;;20.80;61.30;;;;;;5049230;28;20425;-69
2023/07/13 09:19:02;;;;;;;2.92;1.60;;;20.80;61.50;;;;;;5037676;28;20757;-70
2023/07/13 09:21:33;;;;;;;4.78;1.60;;;20.90;61.20;;;;;;5032434;28;21944;-69
2023/07/13 09:24:02;;;;;;;4.07;1.43;;;21.00;60.00;;;;;;5042014;28;20449;-70
2023/07/13 09:26:33;;;;;;;5.40;1.83;;;21.00;60.20;;;;;;5048088;28;20429;-70
2023/07/13 09:29:05;;;;;;;4.63;1.80;;;21.10;59.60;;;;;;5042428;28;20432;-70
2023/07/13 09:31:35;;;;;;;7.82;2.00;;;21.20;59.70;;;;;;5050413;28;20447;-70
2023/07/13 09:34:05;;;;;;;3.80;1.58;;;21.30;58.80;;;;;;5050791;28;20899;-70
2023/07/13 09:36:34;;;;;;;4.10;1.60;;;21.50;58.60;;;;;;5051001;28;20425;-70
2023/07/13 09:39:06;;;;;;;4.78;1.60;;;21.70;58.40;;;;;;5051812;28;20428;-69
2023/07/13 09:41:42;;;;;;;3.10;1.60;;;21.90;56.80;;;;;;5050027;28;20429;-69
2023/07/13 09:44:11;;;;;;;3.95;1.70;;;22.00;57.30;;;;;;5044270;28;20444;-69
2023/07/13 09:46:38;;;;;;;3.35;1.42;;;22.30;54.10;;;;;;5049632;28;20900;-70
2023/07/13 09:49:10;;;;;;;5.93;1.70;;;22.10;54.30;;;;;;5049653;28;20546;-69
2023/07/13 09:51:37;;;;;;;2.60;1.40;;;22.20;54.00;;;;;;5051608;28;20437;-70
2023/07/13 09:54:04;;;;;;;3.38;1.42;;;22.20;53.50;;;;;;5049735;28;20551;-69
2023/07/13 09:56:32;;;;;;;4.15;1.20;;;22.20;52.90;;;;;;5056376;28;20424;-70
2023/07/13 09:58:58;;;;;;;2.90;1.20;;;22.30;53.10;;;;;;5057998;28;20409;-69
2023/07/13 10:01:36;;;;;;;3.58;1.60;;;22.40;52.40;;;;;;5050913;28;20437;-69
2023/07/13 10:04:13;;;;;;;2.97;1.10;;;22.50;52.50;;;;;;5043145;28;20425;-70
2023/07/13 10:06:42;;;;;;;3.10;1.30;;;22.60;50.30;;;;;;5055118;28;20429;-70
2023/07/13 10:09:10;;;;;;;3.13;1.17;;;22.70;49.70;;;;;;5061553;28;20417;-70
2023/07/13 10:11:41;;;;;;;2.35;1.40;;;22.70;49.50;;;;;;5053827;28;20441;-71
2023/07/13 10:14:13;;;;;;;2.00;1.10;;;22.60;49.70;;;;;;5052726;28;20510;-70
2023/07/13 10:16:43;;;;;;;2.78;1.15;;;22.60;48.00;;;;;;5053820;28;20444;-70
2023/07/13 10:19:15;;;;;;;2.40;1.00;;;22.60;47.90;;;;;;5056483;28;20409;-70
2023/07/13 10:21:54;;;;;;;2.20;1.30;;;22.40;48.70;;;;;;5070301;28;20432;-69
2023/07/13 10:24:23;;;;;;;3.75;1.40;;;22.40;49.60;;;;;;5069853;28;20451;-69
2023/07/13 10:26:56;;;;;;;3.10;1.40;;;22.40;50.30;;;;;;5073089;28;20397;-70
2023/07/13 10:29:26;;;;;;;4.10;1.40;;;22.60;50.30;;;;;;5073569;28;20414;-70
2023/07/13 10:31:53;;;;;;;2.63;1.27;;;22.80;49.10;;;;;;5070457;28;20454;-71
2023/07/13 10:34:23;;;;;;;2.65;1.25;;;22.80;47.80;;;;;;5069397;28;20413;-70
2023/07/13 10:36:50;;;;;;;2.43;1.00;;;22.80;47.40;;;;;;5067972;28;20420;-69
2023/07/13 10:39:20;;;;;;;3.90;1.20;;;22.80;47.60;;;;;;5057483;28;20455;-69
2023/07/13 10:41:51;;;;;;;3.10;1.50;;;22.90;48.40;;;;;;5048647;28;20437;-70
2023/07/13 10:44:25;;;;;;;2.67;1.27;;;22.90;47.40;;;;;;5040135;28;20791;-70
2023/07/13 10:46:55;;;;;;;4.40;1.60;;;23.00;47.70;;;;;;5049958;28;21360;-70
2023/07/13 10:49:24;;;;;;;4.80;2.00;;;23.10;47.40;;;;;;5050705;28;20475;-70
2023/07/13 10:51:51;;;;;;;3.28;1.65;;;23.10;48.40;;;;;;5049688;28;20432;-71
2023/07/13 10:54:22;;;;;;;2.50;1.30;;;23.10;48.60;;;;;;5047884;28;20744;-70
2023/07/13 10:56:53;;;;;;;3.35;1.27;;;23.30;47.60;;;;;;5046003;28;20436;-69
2023/07/13 10:59:26;;;;;;;4.70;1.30;;;23.40;46.80;;;;;;5033974;28;20422;-69
2023/07/13 11:01:57;;;;;;;3.97;1.50;;;23.50;46.70;;;;;;5057447;28;20421;-70
2023/07/13 11:04:26;;;;;;;3.50;1.40;;;23.50;47.00;;;;;;5057343;28;20410;-70
2023/07/13 11:06:57;;;;;;;2.53;1.30;;;23.60;45.30;;;;;;5049049;28;20421;-70
2023/07/13 11:09:40;;;;;;;2.78;1.27;;;23.60;45.20;;;;;;5047456;28;20409;-69
2023/07/13 11:12:27;;;;;;;4.45;1.30;;;23.30;46.60;;;;;;5042129;28;20495;-70
2023/07/13 11:15:06;;;;;;;3.45;1.50;;;23.10;46.70;;;;;;5048129;28;20436;-70
2023/07/13 11:17:45;;;;;;;2.30;1.67;;;22.80;48.30;;;;;;5083311;22;20526;-66
2023/07/13 11:20:37;;;;;;;3.10;1.50;;;22.70;48.80;;;;;;5086330;28;20409;-66
2023/07/13 11:23:27;;;;;;;3.03;1.30;;;22.60;48.60;;;;;;5087530;28;20406;-66
2023/07/13 11:25:54;;;;;;;2.70;1.50;;;22.50;49.50;;;;;;5090289;28;20425;-66
2023/07/13 11:28:26;;;;;;;4.50;1.50;;;22.50;50.30;;;;;;5084714;28;20915;-66
2023/07/13 11:31:16;;;;;;;4.27;1.67;;;22.60;50.00;;;;;;5086822;28;20461;-68
2023/07/13 11:33:54;;;;;;;2.80;1.40;;;22.70;50.00;;;;;;5088998;28;20447;-67
2023/07/13 11:36:25;;;;;;;5.75;1.50;;;22.80;47.80;;;;;;5090905;28;20417;-67
2023/07/13 11:39:01;;;;;;;4.20;1.40;;;22.90;46.80;;;;;;5090696;28;20402;-68
2023/07/13 11:41:31;;;;;;;3.13;1.65;;;22.80;46.10;;;;;;5083685;28;20447;-68
2023/07/13 11:44:08;;;;;;;2.90;1.33;;;22.70;46.60;;;;;;5082109;28;20425;-68
2023/07/13 11:46:34;;;;;;;2.97;1.50;;;22.50;48.00;;;;;;5081346;28;20427;-67
2023/07/13 11:49:00;;;;;;;4.68;2.40;;;22.40;48.90;;;;;;5090371;28;20435;-68
2023/07/13 11:51:31;;;;;;;4.93;1.77;;;22.40;49.30;;;;;;5091013;28;20542;-67
2023/07/13 11:54:03;;;;;;;2.85;1.65;;;22.40;49.10;;;;;;5090779;28;20515;-65
2023/07/13 11:56:32;;;;;;;4.20;1.65;;;22.40;49.70;;;;;;5090566;28;20420;-68
2023/07/13 11:59:04;;;;;;;6.90;1.80;;;22.50;49.80;;;;;;5082533;28;20431;-68
2023/07/13 12:01:33;;;;;;;3.10;1.60;;;22.50;50.30;;;;;;5077609;28;20455;-68
2023/07/13 12:04:01;;;;;;;4.15;1.50;;;22.50;50.90;;;;;;5082666;28;20479;-67
2023/07/13 12:06:31;;;;;;;4.68;1.50;;;22.60;51.30;;;;;;5090422;28;20881;-66
2023/07/13 12:09:00;;;;;;;3.85;1.30;;;22.70;48.90;;;;;;5090238;28;20443;-67
2023/07/13 12:11:28;;;;;;;5.50;1.50;;;22.90;48.00;;;;;;5090446;28;20518;-67
2023/07/13 12:13:55;;;;;;;5.38;2.40;;;22.90;47.10;;;;;;5081171;28;20422;-66
2023/07/13 12:16:30;;;;;;;4.93;1.60;;;22.80;47.80;;;;;;5088971;28;20519;-66
2023/07/13 12:18:58;;;;;;;3.13;1.55;;;22.80;46.20;;;;;;5081625;28;20833;-69
2023/07/13 12:21:32;;;;;;;5.65;1.63;;;22.80;46.50;;;;;;5090328;28;20421;-67
2023/07/13 12:24:01;;;;;;;3.50;1.50;;;22.70;46.50;;;;;;5085455;28;20428;-67
2023/07/13 12:26:29;;;;;;;2.70;1.40;;;22.60;47.10;;;;;;5086093;28;20417;-67
2023/07/13 12:28:57;;;;;;;4.03;1.70;;;22.60;47.20;;;;;;5089681;28;20420;-67
2023/07/13 12:31:30;;;;;;;2.40;1.00;;;22.70;46.80;;;;;;5081050;28;20428;-67
2023/07/13 12:33:59;;;;;;;2.45;1.00;;;22.90;45.60;;;;;;5086182;28;20984;-67
2023/07/13 12:36:27;;;;;;;3.97;1.60;;;23.00;44.50;;;;;;5068776;28;20434;-67
2023/07/13 12:38:55;;;;;;;3.30;1.42;;;23.10;45.10;;;;;;5069573;28;20438;-67
2023/07/13 12:41:23;;;;;;;3.30;1.30;;;23.70;44.60;;;;;;5069919;28;20408;-68
2023/07/13 12:43:49;;;;;;;1.70;0.80;;;24.40;43.50;;;;;;5069907;28;20424;-67
2023/07/13 12:46:20;;;;;;;3.73;1.20;;;25.20;40.30;;;;;;5083136;28;20435;-67
2023/07/13 12:48:50;;;;;;;1.80;1.00;;;25.40;38.80;;;;;;5087498;28;20410;-67
2023/07/13 12:51:17;;;;;;;2.60;0.90;;;25.00;38.40;;;;;;5069684;28;20863;-67
2023/07/13 12:53:50;;;;;;;2.38;1.40;;;24.60;39.00;;;;;;5077914;28;20427;-67
2023/07/13 12:56:23;;;;;;;3.40;1.23;;;24.20;39.90;;;;;;5080042;28;20433;-67